• Join FlightAware (Why Join?)
  • Login
  • US Flag 
10:01AM EST


 

Airport Tracker/Info


-or-


 

Live Flight TrackerFlight Track Log ✈ UAL3741 ✈ 04-Jan-2014 ✈ KORD - KDTW

Flight Track Log - Related Links

Times and Time Zones

All times are in EST time to prevent confusion due to time zone crossing. See the UAL3741 flight status page for this flight to view local times or setup timezone preferences in your user account.

Time Position Orientation Groundspeed Altitude Reporting Facility
EST Latitude Longitude Course Direction KTS MPH feet Rate Location/Type
05:52PM 41.9833 -87.9833 323° Northwest 191 220 4,200  Level Chicago TRACON
05:53PM 42.0333 -88.0333 323° Northwest 250 288 5,000 417 Climbing Chicago TRACON
05:54PM 42.1000 -88.0333 360° North 265 305 5,000 469 Level Chicago TRACON
05:55PM 42.1897 -88.0497 352° North 264 304 6,000 1,500 Climbing Chicago Center
05:56PM 42.2650 -88.0475 North 269 310 8,400 2,488 Climbing Chicago Center
05:57PM 42.3531 -88.0436 North 292 336 11,100 2,732 Climbing Chicago Center
05:58PM 42.4364 -88.0381 North 300 345 14,000 2,081 Climbing Chicago Center
05:59PM 42.5253 -88.0106 13° North 339 390 15,400 1,317 Climbing Chicago Center
06:00PM 42.6183 -87.9339 31° Northeast 390 449 16,700 1,122 Climbing Chicago Center
06:01PM 42.6711 -87.7950 63° Northeast 426 490 17,700 1,065 Climbing Chicago Center
06:02PM 42.7067 -87.6367 73° East 439 505 18,900 1,610 Climbing Chicago Center
06:04PM 42.7525 -87.4383 72° East 457 526 21,000 1,659 Climbing Chicago Center
06:05PM 42.7858 -87.2944 72° East 468 539 22,300 968 Climbing Chicago Center
06:06PM 42.8275 -87.1169 72° East 487 560 23,000 341 Climbing Chicago Center
06:07PM 42.8794 -86.8936 72° East 515 593 23,000  Level Chicago Center
06:08PM 42.9219 -86.7089 73° East 515 593 23,000  Level Chicago Center
06:09PM 42.9639 -86.5283 72° East 505 581 23,000  Level Chicago Center
06:10PM 43.0014 -86.3583 73° East 471 542 23,000  Level Chicago Center
06:11PM 43.0397 -86.1858 73° East 473 544 23,000  Level Chicago Center
06:12PM 43.0803 -86.0039 73° East 479 551 23,000  Level Chicago Center
06:13PM 43.1197 -85.8194 74° East 483 556 23,000  Level Chicago Center
06:14PM 43.1592 -85.6353 74° East 495 570 23,000  Level Chicago Center
06:15PM 43.1994 -85.4511 73° East 503 579 23,000  Level Chicago Center
06:16PM 43.2389 -85.2694 73° East 501 577 23,000  Level Chicago Center
06:17PM 43.2172 -85.0572 98° East 464 534 23,000  Level Chicago Center
06:18PM 43.1856 -84.8833 104° East 468 539 23,000 -387 Level Chicago Center
06:19PM 43.1533 -84.7131 104° East 463 533 22,200 -1,220 Descending Chicago Center
06:20PM 43.1217 -84.5458 104° East 455 524 20,500 -1,756 Descending Chicago Center
06:21PM 43.0903 -84.3856 105° East 440 506 18,600 -1,818 Descending Chicago Center
06:22PM 43.0711 -84.2897 105° East 438 504 17,500 -1,818 Descending Cleveland Center
06:23PM 43.0417 -84.1350 105° East 427 491 15,600 -1,839 Descending Cleveland Center
06:24PM 42.9844 -83.9878 118° Southeast 372 428 13,700 -1,756 Descending Cleveland Center
06:24PM 42.9619 -83.9517 130° Southeast 345 397 13,200 -1,452 Descending Cleveland Center
06:25PM 42.9256 -83.8867 127° Southeast 345 397 12,200 -1,082 Descending Cleveland Center
06:25PM 42.9031 -83.8514 131° Southeast 338 389 12,100 -98 Descending Cleveland Center
06:26PM 42.8683 -83.7889 127° Southeast 335 386 12,100  Level Cleveland Center
06:26PM 42.8461 -83.7547 132° Southeast 316 364 12,100 -677 Level Cleveland Center
06:27PM 42.8047 -83.7147 145° Southeast 310 357 11,400 -1,377 Descending Cleveland Center
06:27PM 42.7731 -83.6983 159° South 296 341 10,700 -1,645 Descending Cleveland Center
06:28PM 42.7242 -83.6681 156° South 296 341 9,700 -1,500 Descending Cleveland Center
06:28PM 42.7031 -83.6567 158° South 296 341 9,300 -677 Descending Cleveland Center
06:29PM 42.6561 -83.6278 156° South 290 334 9,000 -295 Descending Cleveland Center
06:29PM 42.6369 -83.6186 161° South 233 268 9,000 -984 Level Cleveland Center
06:30PM 42.6000 -83.5942 154° Southeast 232 267 8,000 -1,479 Descending Cleveland Center
06:30PM 42.5783 -83.5617 132° Southeast 229 264 7,200 -1,742 Descending Cleveland Center
06:31PM 42.5667 -83.5036 105° East 238 274 6,200 -1,200 Descending Cleveland Center
06:31PM 42.5597 -83.4797 112° Southeast 250 288 6,100 -194 Descending Cleveland Center
06:32PM 42.5481 -83.4164 104° East 240 276 6,000 -90 Descending Cleveland Center
06:32PM 42.5422 -83.3836 104° East 236 272 6,000 -393 Level Cleveland Center
06:33PM 42.5272 -83.3317 111° Southeast 237 273 5,600 -689 Descending Cleveland Center
06:33PM 42.5169 -83.3036 116° Southeast 228 262 5,300 -968 Descending Cleveland Center
06:34PM 42.4947 -83.2625 126° Southeast 224 258 4,600 -1,100 Descending Cleveland Center
06:34PM 42.4719 -83.2633 182° South 188 216 4,200 -581 Descending Cleveland Center
06:35PM 42.4431 -83.2658 184° South 192 221 4,000 -197 Descending Cleveland Center
06:35PM 42.4236 -83.2650 178° South 169 194 4,000 -197 Level Cleveland Center
06:36PM 42.3964 -83.2636 178° South 174 200 3,800 -321 Descending Cleveland Center
06:36PM 42.3797 -83.2617 175° South 169 194 3,700 -484 Descending Cleveland Center
06:37PM 42.3525 -83.2714 195° South 167 192 3,300 -545 Descending Cleveland Center
06:37PM 42.3383 -83.2842 214° Southwest 140 161 3,100 -290 Descending Cleveland Center
06:38PM 42.3197 -83.2981 209° Southwest 143 165 3,000 -436 Descending Cleveland Center
06:38PM 42.3069 -83.3081 210° Southwest 141 162 2,700 -787 Descending Cleveland Center
06:39PM 42.2881 -83.3214 208° Southwest 136 157 2,200 -655 Descending Cleveland Center
06:39PM 42.2806 -83.3269 209° Southwest 111 128 2,100 -581 Descending Cleveland Center
06:40PM 42.2611 -83.3417 209° Southwest 120 138 1,600 -716 Descending Cleveland Center
06:40PM 42.2492 -83.3506 209° Southwest 120 138 1,300 -677 Descending Cleveland Center
06:41PM 42.2311 -83.3636 208° Southwest 120 138 900 -453 Descending Cleveland Center